CW6975 Rochester WA US current weather conditions

sailwx.info

Wind from 335

Air temperature -1.7° C
Dewpoint -2.2° C

Last reported at 2020-Feb-25 14:03 UTC.
Time now 2020-Feb-25 15:10 UTC

Location: N 46°49' W 123°05'.
View on Google Maps.

See reports from other nearby stations

  
Tides and Currents Weather Stations Pressure Air Temp Water Temp Dewpoint Dewpoint Depression Visibility Wind Speed Wind Dir Waves Ship Positions
date/time (UTC)wind fromknots sea level pressurealtimeterstation pressurevisibilityair tempwater tempwave heightnotes
2020-Feb-25 14:03 335 -1.7
2020-Feb-25 13:33 335 -1.7
2020-Feb-25 13:18 335 -1.7
2020-Feb-25 13:03 335 -1.7
2020-Feb-25 12:48 335 -1.7
2020-Feb-25 12:33 335 -1.7
2020-Feb-25 12:18 335 -1.7
2020-Feb-25 12:03 335 -1.7
2020-Feb-25 11:48 335 -1.7
2020-Feb-25 11:33 335 -2.2
2020-Feb-25 11:18 335 -2.2
2020-Feb-25 11:03 335 -2.2
2020-Feb-25 10:48 335 -1.7
2020-Feb-25 10:33 335 -1.7
2020-Feb-25 10:18 335 -2.2
2020-Feb-25 10:03 335 -2.2
2020-Feb-25 09:48 335 -2.2
2020-Feb-25 09:18 335 -1.7
2020-Feb-25 09:03 335 -1.7
2020-Feb-25 08:48 335 -1.7
2020-Feb-25 08:33 335 -1.7
2020-Feb-25 08:18 335 -1.7
2020-Feb-25 08:03 335 -1.1
2020-Feb-25 07:48 335 -1.1
2020-Feb-25 07:33 335 -0.6
2020-Feb-25 07:03 335 -0.6
2020-Feb-25 06:48 335 -0.0
2020-Feb-25 06:33 335 -0.0
2020-Feb-25 06:18 335 -0.0
2020-Feb-25 06:03 335 0.6
2020-Feb-25 05:48 335 0.6
2020-Feb-25 05:33 335 1.1
2020-Feb-25 05:03 335 1.1
2020-Feb-25 04:48 335 1.7
2020-Feb-25 04:33 335 2.2
2020-Feb-25 04:18 335 2.8
2020-Feb-25 04:03 335 2.8
2020-Feb-25 03:48 335 3.3
2020-Feb-25 03:33 335 3.9
2020-Feb-25 03:18 335 4.4
2020-Feb-25 03:03 335 4.4
2020-Feb-25 02:48 335 5.0
2020-Feb-25 02:33 335 5.0
2020-Feb-25 02:18 335 5.0
2020-Feb-25 02:03 335 5.6
2020-Feb-25 01:48 335 6.1
2020-Feb-25 01:33 335 7.2
2020-Feb-25 01:18 335 7.8
2020-Feb-25 01:03 335 8.3
2020-Feb-25 00:48 335 8.3
2020-Feb-25 00:33 335 8.9
2020-Feb-25 00:18 335 8.9
2020-Feb-25 00:03 335 8.9
2020-Feb-24 23:48 336 8.9
2020-Feb-24 23:33 336 8.9
2020-Feb-24 23:18 337 8.9
2020-Feb-24 23:03 337 8.9
2020-Feb-24 22:48 337 8.9
2020-Feb-24 22:33 337 8.9
2020-Feb-24 22:18 338 8.3
2020-Feb-24 22:03 338 8.3
2020-Feb-24 21:48 338 8.3
2020-Feb-24 21:33 338 7.8
2020-Feb-24 21:18 334 1 gusting 5 8.3
2020-Feb-24 21:03 336 8.9
2020-Feb-24 20:48 336 8.3
2020-Feb-24 20:33 336 8.3
2020-Feb-24 20:18 346 7.8
2020-Feb-24 20:03 273 0 gusting 3 7.8
2020-Feb-24 19:48 221 1 gusting 4 8.3
2020-Feb-24 19:33 308 1 gusting 5 8.3
2020-Feb-24 19:18 275 0 gusting 6 9.4
2020-Feb-24 19:03 217 1 gusting 6 8.3
2020-Feb-24 18:48 273 0 gusting 5 7.8
2020-Feb-24 18:33 206 0 gusting 5 6.7
2020-Feb-24 18:03 175 0 gusting 4 6.7
2020-Feb-24 17:48 157 6.1
2020-Feb-24 17:33 151 1 gusting 3 5.6
2020-Feb-24 17:18 148 5.0
2020-Feb-24 17:03 148 5.0
2020-Feb-24 16:48 147 4.4
2020-Feb-24 16:33 148 4.4
2020-Feb-24 16:18 163 3.9
2020-Feb-24 16:03 163 3.9
2020-Feb-24 15:48 164 3.9
2020-Feb-24 15:33 164 3.3
2020-Feb-24 15:18 164 3.3
2020-Feb-24 15:03 164 3.3
2020-Feb-24 14:48 164 3.9
2020-Feb-24 14:33 164 3.9
2020-Feb-24 14:18 164 3.9
2020-Feb-24 14:03 164 0 gusting 1 3.9
2020-Feb-24 13:48 164 3.9
2020-Feb-24 13:33 164 3.9
2020-Feb-24 13:18 164 3.9
2020-Feb-24 13:03 180 3.9
2020-Feb-24 12:48 186 0 gusting 2 3.3
2020-Feb-24 12:33 186 3.9
2020-Feb-24 12:18 186 3.9
2020-Feb-24 12:03 186 3.9
2020-Feb-24 11:48 201 4.4
2020-Feb-24 11:33 136 0 gusting 3 4.4
2020-Feb-24 11:18 133 4.4
2020-Feb-24 11:03 137 4.4
2020-Feb-24 10:48 155 1 gusting 3 4.4
2020-Feb-24 10:33 194 4.4
2020-Feb-24 10:18 156 0 gusting 5 4.4
2020-Feb-24 10:03 150 2 gusting 6 4.4
2020-Feb-24 09:48 160 0 gusting 4 5.0
2020-Feb-24 09:33 186 5.0
2020-Feb-24 09:18 153 1 gusting 6 5.0
2020-Feb-24 09:03 180 0 gusting 6 5.0
2020-Feb-24 08:48 167 1 gusting 5 5.0
2020-Feb-24 08:33 186 0 gusting 3 5.0
2020-Feb-24 08:18 189 2 gusting 6 5.0
2020-Feb-24 08:03 161 1 gusting 6 4.4
2020-Feb-24 07:48 159 2 gusting 6 5.0
2020-Feb-24 07:33 167 0 gusting 2 4.4
2020-Feb-24 07:18 211 5.0
2020-Feb-24 07:03 225 5.0
2020-Feb-24 06:48 204 0 gusting 5 5.0
2020-Feb-24 06:33 170 0 gusting 5 5.0
2020-Feb-24 06:18 152 0 gusting 6 5.0
2020-Feb-24 06:03 178 5.0
2020-Feb-24 05:48 169 1 gusting 6 5.0
2020-Feb-24 05:33 177 0 gusting 5 5.0
2020-Feb-24 05:18 177 0 gusting 3 5.0
2020-Feb-24 05:03 251 1 gusting 6 5.0
2020-Feb-24 04:48 234 0 gusting 5 5.0
2020-Feb-24 04:33 229 5.0
2020-Feb-24 04:18 213 2 gusting 8 5.0
2020-Feb-24 04:03 211 1 gusting 5 5.0
2020-Feb-24 03:48 285 2 gusting 12 5.6
2020-Feb-24 03:33 213 2 gusting 6 5.6
2020-Feb-24 03:18 195 2 gusting 7 5.0
2020-Feb-24 03:03 205 0 gusting 6 5.0
2020-Feb-24 02:48 219 0 gusting 9 5.0
2020-Feb-24 02:33 212 0 gusting 8 5.0
2020-Feb-24 02:18 254 0 gusting 7 5.0
2020-Feb-24 02:03 229 0 gusting 10 5.0
2020-Feb-24 01:48 269 0 gusting 10 5.6
2020-Feb-24 01:33 206 1 gusting 6 5.6
2020-Feb-24 01:18 255 2 gusting 8 6.1
2020-Feb-24 01:03 232 2 gusting 15 6.7
2020-Feb-24 00:48 148 3 gusting 9 6.7
2020-Feb-24 00:33 220 1 gusting 9 6.7
2020-Feb-24 00:18 216 2 gusting 17 6.7
2020-Feb-24 00:03 244 0 gusting 9 7.2
2020-Feb-23 23:48 106 0 gusting 9 7.8
2020-Feb-23 23:33 209 3 gusting 11 7.2
2020-Feb-23 23:18 266 3 gusting 12 6.7
2020-Feb-23 23:03 198 2 gusting 8 7.2
2020-Feb-23 22:48 235 2 gusting 12 7.8
2020-Feb-23 22:33 210 2 gusting 14 7.8
2020-Feb-23 22:18 236 2 gusting 10 7.8
2020-Feb-23 22:03 234 1 gusting 16 7.2
2020-Feb-23 21:48 222 3 gusting 13 8.3
2020-Feb-23 21:33 248 1 gusting 8 8.9
2020-Feb-23 21:18 234 5 gusting 15 8.3
2020-Feb-23 21:03 211 3 gusting 16 7.8
2020-Feb-23 20:48 248 4 gusting 11 8.3
2020-Feb-23 20:33 217 3 gusting 8 7.2
2020-Feb-23 20:18 216 2 gusting 6 7.2
2020-Feb-23 20:03 169 0 gusting 8 6.1
2020-Feb-23 19:48 205 0 gusting 6 6.1
2020-Feb-23 19:33 178 5 gusting 8 6.1
2020-Feb-23 19:03 255 3 gusting 12 6.7
2020-Feb-23 18:48 221 4 gusting 12 6.7
2020-Feb-23 18:33 197 5 gusting 14 6.7
2020-Feb-23 18:18 192 3 gusting 8 7.2
2020-Feb-23 18:03 219 3 gusting 11 6.1
2020-Feb-23 17:48 258 3 gusting 13 6.7
2020-Feb-23 17:33 261 6.7
2020-Feb-23 17:18 219 6 gusting 18 6.7
2020-Feb-23 17:03 205 1 gusting 8 7.2
2020-Feb-23 16:48 217 2 gusting 9 6.7
2020-Feb-23 16:33 202 3 gusting 9 6.1
2020-Feb-23 16:18 196 5 gusting 12 6.1
2020-Feb-23 16:03 234 0 gusting 6 6.1
2020-Feb-23 15:48 225 6.1
2020-Feb-23 15:33 229 4 gusting 14 6.1
2020-Feb-23 15:18 241 2 gusting 8 6.1